createdAt,value
2023-03-22T00:47:19.718Z,6.30
2023-03-22T00:48:19.000Z,8.60
2023-03-22T00:49:19.781Z,9.10
2023-03-22T00:50:20.234Z,9.90
2023-03-22T00:58:08.108Z,8.90
2023-03-22T00:59:07.955Z,7.90
2023-03-22T01:00:08.050Z,9.80
2023-03-22T01:01:08.783Z,9.20
2023-03-22T01:02:07.931Z,9.40
2023-03-22T01:03:07.862Z,7.40
2023-03-22T01:04:07.774Z,7.40
2023-03-22T01:05:18.729Z,8.70
2023-03-22T01:06:08.764Z,9.20
2023-03-22T01:07:08.637Z,9.00
2023-03-22T01:08:08.493Z,7.90
2023-03-22T01:09:08.781Z,7.60
2023-03-22T01:10:08.510Z,10.10
2023-03-22T01:11:08.469Z,8.80
2023-03-22T01:12:08.372Z,9.80
2023-03-22T01:13:08.506Z,8.20
2023-03-22T01:14:08.353Z,10.00
2023-03-22T01:15:08.248Z,8.80
2023-03-22T01:16:08.380Z,8.40
2023-03-22T01:17:08.180Z,10.50
2023-03-22T01:18:08.178Z,10.00
2023-03-22T01:19:10.317Z,8.80
2023-03-22T01:20:09.631Z,8.30
2023-03-22T01:21:08.641Z,8.50
2023-03-22T01:22:08.537Z,8.80
2023-03-22T01:24:40.120Z,10.20
2023-03-22T01:25:39.968Z,9.60
2023-03-22T01:26:39.956Z,9.70
2023-03-22T01:27:39.969Z,11.20
2023-03-22T01:28:39.825Z,9.30
2023-03-22T01:29:39.817Z,9.10
2023-03-22T01:30:40.044Z,10.20
2023-03-22T01:31:40.007Z,10.00
2023-03-22T01:32:39.738Z,9.80
2023-03-22T01:33:39.743Z,10.30
2023-03-22T01:34:40.016Z,8.80
2023-03-22T01:35:39.540Z,9.80
2023-03-22T01:36:39.530Z,11.50
2023-03-22T01:37:39.473Z,8.80
2023-03-22T01:38:39.850Z,8.80
2023-03-22T01:39:39.378Z,8.20
2023-03-22T01:40:39.611Z,9.70
2023-03-22T01:41:43.094Z,9.40
2023-03-22T01:42:42.636Z,9.90
2023-03-22T01:43:39.263Z,10.00
2023-03-22T01:46:11.287Z,10.40
2023-03-22T01:47:11.259Z,9.70
2023-03-22T01:48:11.103Z,8.70
2023-03-22T01:49:11.211Z,9.40
2023-03-22T01:50:11.047Z,10.10
2023-03-22T01:51:11.050Z,9.30
2023-03-22T01:52:10.935Z,9.90
2023-03-22T01:53:10.993Z,10.20
2023-03-22T01:54:10.835Z,9.20
2023-03-22T01:55:10.860Z,11.10
2023-03-22T01:56:10.821Z,9.20
2023-03-22T01:57:10.820Z,10.90
2023-03-22T01:58:10.778Z,9.20
2023-03-22T01:59:10.793Z,10.40
2023-03-22T02:00:10.604Z,10.20
2023-03-22T02:01:10.726Z,9.90
2023-03-22T02:02:10.633Z,9.70
2023-03-22T02:03:10.499Z,10.10
2023-03-22T02:04:10.592Z,10.20
2023-03-22T02:05:14.307Z,11.80
2023-03-22T02:06:12.345Z,11.70
2023-03-22T02:07:10.338Z,11.10
2023-03-22T02:09:43.680Z,10.40
2023-03-22T02:10:45.000Z,9.90
2023-03-22T02:11:43.350Z,9.60
2023-03-22T02:12:44.359Z,10.70
2023-03-22T02:13:43.284Z,10.30
2023-03-22T02:14:43.197Z,12.00
2023-03-22T02:15:50.070Z,10.90
2023-03-22T02:16:47.502Z,10.20
2023-03-22T02:17:45.362Z,10.50
2023-03-22T02:18:44.304Z,11.40
2023-03-22T02:21:14.983Z,12.80
2023-03-22T02:22:14.907Z,11.00
2023-03-22T02:23:14.864Z,10.00
2023-03-22T02:24:14.914Z,11.90
2023-03-22T02:25:14.744Z,11.10
2023-03-22T02:26:14.851Z,11.70
2023-03-22T02:27:14.756Z,11.00
2023-03-22T02:28:14.558Z,11.10
2023-03-22T02:29:14.869Z,9.80
2023-03-22T02:30:14.883Z,10.70
2023-03-22T02:31:15.153Z,10.60
2023-03-22T02:32:14.562Z,10.60
2023-03-22T02:33:14.551Z,10.40
2023-03-22T02:34:14.433Z,10.90
2023-03-22T02:35:16.598Z,11.00
2023-03-22T02:36:17.577Z,11.40
2023-03-22T02:37:19.625Z,11.00
2023-03-22T02:38:14.526Z,11.40
2023-03-22T02:39:14.202Z,11.00
2023-03-22T02:40:14.434Z,10.10
2023-03-22T02:42:46.276Z,10.30
2023-03-22T02:43:46.158Z,10.70
2023-03-22T02:44:45.994Z,12.20
2023-03-22T02:45:46.180Z,12.00
2023-03-22T02:46:46.077Z,12.10
2023-03-22T02:47:46.293Z,11.60
2023-03-22T02:48:45.970Z,10.90
2023-03-22T02:49:45.902Z,12.40
2023-03-22T02:50:45.843Z,11.20
2023-03-22T02:51:45.964Z,11.90
2023-03-22T02:52:46.151Z,10.50
2023-03-22T02:53:45.912Z,11.70
2023-03-22T02:54:46.800Z,10.50
2023-03-22T02:55:46.519Z,12.50
2023-03-22T02:56:46.134Z,12.10
2023-03-22T02:57:45.564Z,11.20
2023-03-22T03:00:18.670Z,11.10
2023-03-22T03:01:18.543Z,11.40
2023-03-22T03:02:18.623Z,11.60
2023-03-22T03:03:18.498Z,14.10
2023-03-22T03:04:18.557Z,11.30
2023-03-22T03:05:18.307Z,10.40
2023-03-22T03:06:18.360Z,11.30
2023-03-22T03:07:18.266Z,11.60
2023-03-22T03:08:18.276Z,11.30
2023-03-22T03:09:18.242Z,11.70
2023-03-22T03:10:19.165Z,11.20
2023-03-22T03:11:18.130Z,12.70
2023-03-22T03:12:20.651Z,12.60
2023-03-22T03:13:18.100Z,12.00
2023-03-22T03:14:34.766Z,11.70
2023-03-22T03:15:22.162Z,14.50
2023-03-22T03:16:18.184Z,12.30
2023-03-22T03:18:51.005Z,14.30
2023-03-22T03:19:50.712Z,12.60
2023-03-22T03:20:51.244Z,12.10
2023-03-22T03:21:50.729Z,14.20
2023-03-22T03:22:50.975Z,13.30
2023-03-22T03:23:50.561Z,11.80
2023-03-22T03:24:50.752Z,11.50
2023-03-22T03:25:50.802Z,12.30
2023-03-22T03:26:50.586Z,12.90
2023-03-22T03:27:52.015Z,11.70
2023-03-22T03:28:53.536Z,13.80
2023-03-22T03:29:50.966Z,11.80
2023-03-22T03:32:22.408Z,13.50
2023-03-22T03:33:22.408Z,11.90
2023-03-22T03:34:23.025Z,11.90
2023-03-22T03:35:22.599Z,12.20
2023-03-22T03:36:23.778Z,12.60
2023-03-22T03:37:22.222Z,12.80
2023-03-22T03:38:22.553Z,13.40
2023-03-22T03:40:55.263Z,12.80
2023-03-22T03:41:55.132Z,11.90
2023-03-22T03:42:55.140Z,11.80
2023-03-22T03:43:56.207Z,12.50
2023-03-22T03:44:55.016Z,12.80
2023-03-22T03:45:55.290Z,13.40
2023-03-22T03:46:55.187Z,13.30
2023-03-22T03:47:55.786Z,12.20
2023-03-22T03:48:54.803Z,12.90
2023-03-22T03:49:57.772Z,13.20
2023-03-22T03:50:55.709Z,11.60
2023-03-22T03:51:54.691Z,12.40
2023-03-22T03:54:26.673Z,12.50
2023-03-22T03:55:26.641Z,14.00
2023-03-22T03:56:26.639Z,12.80
2023-03-22T03:57:26.625Z,13.10
2023-03-22T03:58:26.653Z,12.30
2023-03-22T03:59:26.572Z,13.40
2023-03-22T04:00:26.476Z,13.50
2023-03-22T04:01:26.342Z,13.80
2023-03-22T04:02:27.618Z,13.70
2023-03-22T04:03:26.353Z,12.20
2023-03-22T04:04:26.546Z,12.10
2023-03-22T04:05:26.296Z,12.30
2023-03-22T04:06:26.300Z,12.00
2023-03-22T04:07:26.218Z,15.80
2023-03-22T04:08:27.054Z,12.70
2023-03-22T04:09:26.276Z,11.80
2023-03-22T04:10:26.298Z,13.80
2023-03-22T04:11:26.271Z,11.90
2023-03-22T04:12:26.797Z,13.20
2023-03-22T04:13:25.952Z,12.70
2023-03-22T04:14:25.969Z,14.00
2023-03-22T04:15:25.881Z,14.10
2023-03-22T04:16:25.983Z,12.80
2023-03-22T04:17:25.836Z,12.20
2023-03-22T04:18:25.959Z,12.20
2023-03-22T04:19:36.336Z,13.70
2023-03-22T04:20:28.338Z,12.50
2023-03-22T04:21:25.732Z,14.00
2023-03-22T04:22:26.557Z,12.30
2023-03-22T04:24:57.188Z,11.80
2023-03-22T04:25:57.091Z,12.90
2023-03-22T04:26:57.096Z,12.60
2023-03-22T04:27:57.127Z,11.30
2023-03-22T04:28:57.612Z,11.90
2023-03-22T04:29:56.998Z,14.10
2023-03-22T04:30:57.022Z,11.90
2023-03-22T04:31:57.033Z,12.20
2023-03-22T04:32:56.817Z,13.80
2023-03-22T04:33:56.824Z,12.90
2023-03-22T04:34:56.734Z,11.50
2023-03-22T04:35:56.931Z,11.70
2023-03-22T04:36:56.644Z,12.90
2023-03-22T04:37:56.583Z,11.00
2023-03-22T04:38:56.631Z,12.30
2023-03-22T04:39:56.563Z,11.50
2023-03-22T04:40:56.576Z,10.30
2023-03-22T04:41:56.519Z,10.00
2023-03-22T04:42:56.328Z,10.50
2023-03-22T04:43:56.345Z,9.90
2023-03-22T04:45:03.155Z,10.70
2023-03-22T04:46:01.668Z,10.70
2023-03-22T04:46:56.318Z,10.90
2023-03-22T04:49:28.527Z,11.60
2023-03-22T04:50:28.413Z,11.70
2023-03-22T04:51:28.282Z,10.90
2023-03-22T04:52:28.795Z,10.20
2023-03-22T04:53:28.316Z,10.10
2023-03-22T04:54:28.275Z,9.90
2023-03-22T04:55:28.124Z,10.90
2023-03-22T04:56:28.160Z,11.20
2023-03-22T04:57:28.093Z,11.10
2023-03-22T04:58:28.392Z,10.10
2023-03-22T04:59:28.069Z,12.40
2023-03-22T05:00:27.987Z,11.20
2023-03-22T05:01:28.243Z,11.70
2023-03-22T05:02:27.990Z,11.90
2023-03-22T05:03:27.910Z,11.00
2023-03-22T05:04:36.832Z,11.30
2023-03-22T05:05:27.985Z,12.70
2023-03-22T05:07:59.838Z,11.90
2023-03-22T05:08:59.736Z,11.90
2023-03-22T05:09:59.750Z,12.60
2023-03-22T05:10:59.664Z,10.60
2023-03-22T05:11:59.673Z,13.10
2023-03-22T05:12:59.623Z,12.50
2023-03-22T05:13:59.437Z,11.70
2023-03-22T05:14:59.516Z,12.00
2023-03-22T05:15:59.576Z,11.90
2023-03-22T05:16:59.419Z,11.10
2023-03-22T05:17:59.470Z,11.90
2023-03-22T05:19:00.478Z,9.60
2023-03-22T05:19:59.931Z,10.30
2023-03-22T05:20:59.517Z,10.20
2023-03-22T05:21:59.312Z,10.40
2023-03-22T05:22:59.882Z,9.50
2023-03-22T05:23:59.019Z,11.60
2023-03-22T05:24:58.999Z,11.10
2023-03-22T05:25:59.006Z,10.20
2023-03-22T05:26:59.014Z,9.20
2023-03-22T05:27:59.282Z,10.30
2023-03-22T05:28:58.862Z,10.00
2023-03-22T05:29:58.856Z,8.90
2023-03-22T05:30:59.278Z,9.80
2023-03-22T05:31:58.823Z,8.60
2023-03-22T05:32:58.712Z,10.30
2023-03-22T05:33:58.752Z,10.20
2023-03-22T05:34:58.710Z,8.80
2023-03-22T05:35:58.701Z,9.10
2023-03-22T05:38:07.880Z,10.10
2023-03-22T05:38:58.747Z,10.90
2023-03-22T05:41:31.593Z,10.00
2023-03-22T05:42:31.489Z,10.70
2023-03-22T05:43:32.396Z,11.20
2023-03-22T05:44:32.615Z,8.90
2023-03-22T05:45:31.433Z,9.70
2023-03-22T05:46:31.465Z,9.60
2023-03-22T05:47:31.300Z,8.60
2023-03-22T05:48:32.546Z,9.90
2023-03-22T05:49:32.670Z,8.10
2023-03-22T05:50:32.002Z,10.00
2023-03-22T05:51:31.339Z,10.70
2023-03-22T05:52:33.993Z,9.60
2023-03-22T05:53:31.365Z,8.80
2023-03-22T05:54:31.620Z,9.40
2023-03-22T05:55:31.314Z,8.80
2023-03-22T05:56:31.696Z,10.80
2023-03-22T05:59:02.975Z,9.80
2023-03-22T06:00:02.945Z,11.50
2023-03-22T06:01:02.783Z,9.50
2023-03-22T06:02:02.851Z,9.40
2023-03-22T06:03:04.110Z,9.10
2023-03-22T06:04:02.862Z,10.30
2023-03-22T06:05:02.676Z,8.70
2023-03-22T06:07:34.630Z,10.90
2023-03-22T06:08:34.493Z,10.70
2023-03-22T06:09:34.633Z,10.70
2023-03-22T06:10:34.574Z,10.40
2023-03-22T06:11:34.528Z,10.50
2023-03-22T06:12:34.515Z,12.40
2023-03-22T06:16:06.089Z,9.80
2023-03-22T06:17:05.971Z,9.40
2023-03-22T06:18:06.044Z,10.60
2023-03-22T06:19:05.913Z,10.80
2023-03-22T06:20:05.919Z,9.40
2023-03-22T06:21:05.885Z,10.80
2023-03-22T06:22:05.752Z,10.00
2023-03-22T06:23:05.774Z,11.10
2023-03-22T06:24:05.820Z,9.60
2023-03-22T06:25:05.698Z,11.60
2023-03-22T06:26:09.050Z,10.60
2023-03-22T06:27:07.427Z,10.60
2023-03-22T06:28:07.550Z,12.60
2023-03-22T06:29:08.047Z,8.90
2023-03-22T06:30:07.493Z,9.40
2023-03-22T06:31:05.600Z,10.00
2023-03-22T06:32:06.248Z,11.10
2023-03-22T06:33:07.993Z,10.60
2023-03-22T06:34:05.649Z,10.60
2023-03-22T06:35:05.445Z,10.40
2023-03-22T06:36:05.483Z,10.60
2023-03-22T06:37:05.253Z,10.80
2023-03-22T06:38:10.005Z,10.10
2023-03-22T06:39:05.131Z,9.40
2023-03-22T06:40:05.400Z,10.60
2023-03-22T06:41:04.591Z,10.90
2023-03-22T06:42:04.126Z,11.20
2023-03-22T06:43:07.007Z,11.30
2023-03-22T06:44:03.961Z,11.70
2023-03-22T06:45:03.893Z,9.10
2023-03-22T06:46:03.891Z,10.50
2023-03-22T06:47:03.816Z,11.00
2023-03-22T06:48:03.837Z,11.00
2023-03-22T06:49:03.746Z,9.40
2023-03-22T06:50:03.691Z,10.20
2023-03-22T06:51:03.689Z,11.20
2023-03-22T06:52:03.608Z,12.60
2023-03-22T06:53:03.611Z,9.90
2023-03-22T06:54:03.557Z,10.20
2023-03-22T06:55:03.507Z,9.30
2023-03-22T06:56:03.442Z,11.70
2023-03-22T06:57:03.429Z,9.70
2023-03-22T06:58:03.364Z,12.60
2023-03-22T06:59:03.341Z,12.50
2023-03-22T07:00:03.276Z,11.40
2023-03-22T07:01:03.286Z,10.10
2023-03-22T07:02:03.195Z,10.30
2023-03-22T07:03:03.182Z,9.30
2023-03-22T07:04:03.119Z,10.70
2023-03-22T07:05:03.093Z,8.70
2023-03-22T07:06:13.572Z,10.20
2023-03-22T07:07:03.005Z,11.20
2023-03-22T07:08:02.966Z,9.30
2023-03-22T07:09:02.921Z,11.40
2023-03-22T07:10:02.883Z,9.90
2023-03-22T07:11:02.842Z,9.90
2023-03-22T07:12:02.795Z,9.10
2023-03-22T07:13:02.773Z,8.40
2023-03-22T07:14:02.743Z,9.30
2023-03-22T07:15:02.682Z,8.30
2023-03-22T07:16:02.670Z,9.40
2023-03-22T07:17:02.602Z,8.90
2023-03-22T07:18:02.555Z,9.30
2023-03-22T07:19:02.526Z,7.70
2023-03-22T07:20:02.508Z,8.00
2023-03-22T07:21:02.454Z,7.50
2023-03-22T07:22:02.400Z,7.10
2023-03-22T07:23:02.368Z,10.40
2023-03-22T07:24:02.322Z,9.30
2023-03-22T07:25:02.286Z,6.80
2023-03-22T07:26:02.273Z,8.70
2023-03-22T07:27:02.210Z,7.00
2023-03-22T07:28:02.168Z,8.30
2023-03-22T07:29:02.132Z,8.40
2023-03-22T07:30:02.089Z,6.60
2023-03-22T07:31:02.053Z,8.90
2023-03-22T07:32:02.114Z,9.70
2023-03-22T07:33:01.986Z,5.80
2023-03-22T07:34:01.949Z,8.00
2023-03-22T07:35:02.163Z,7.90
2023-03-22T07:36:01.894Z,8.70
2023-03-22T07:37:01.831Z,7.90
2023-03-22T07:38:01.789Z,8.60
2023-03-22T07:39:01.757Z,9.00
2023-03-22T07:40:01.706Z,7.40
2023-03-22T07:41:01.677Z,7.10
2023-03-22T07:42:01.634Z,8.00
2023-03-22T07:43:01.609Z,7.60
2023-03-22T07:44:16.692Z,6.60
2023-03-22T07:45:01.534Z,7.40
2023-03-22T07:46:01.488Z,7.20
2023-03-22T07:47:01.465Z,9.10
2023-03-22T07:48:01.872Z,7.60
2023-03-22T07:49:01.519Z,7.50
2023-03-22T07:50:01.518Z,8.70
2023-03-22T07:51:01.308Z,7.20
2023-03-22T07:52:01.282Z,6.80
2023-03-22T07:53:01.232Z,8.10
2023-03-22T07:54:01.194Z,6.20
2023-03-22T07:55:01.174Z,8.00
2023-03-22T07:56:01.121Z,6.40
2023-03-22T07:57:02.095Z,7.80
2023-03-22T07:58:01.062Z,7.50
2023-03-22T07:59:01.098Z,7.50
2023-03-22T08:00:01.009Z,6.70
2023-03-22T08:01:00.938Z,5.70
2023-03-22T08:02:00.922Z,6.50
2023-03-22T08:03:00.926Z,5.70
2023-03-22T08:04:00.829Z,8.10
2023-03-22T08:05:01.063Z,7.00
2023-03-22T08:06:00.782Z,7.00
2023-03-22T08:07:00.722Z,6.30
2023-03-22T08:08:00.685Z,7.70
2023-03-22T08:09:00.640Z,6.40
2023-03-22T08:10:00.602Z,6.80
2023-03-22T08:11:00.571Z,4.20
2023-03-22T08:12:00.541Z,6.70
2023-03-22T08:13:00.486Z,5.10
2023-03-22T08:14:00.456Z,6.10
2023-03-22T08:15:00.416Z,6.60
2023-03-22T08:16:00.392Z,8.70
2023-03-22T08:17:00.345Z,6.00
2023-03-22T08:18:00.294Z,6.30
2023-03-22T08:19:00.258Z,5.00
2023-03-22T08:20:00.227Z,5.90
2023-03-22T08:21:00.179Z,8.30
2023-03-22T08:22:00.146Z,5.60
2023-03-22T08:23:00.123Z,5.60
2023-03-22T08:24:00.077Z,7.90
2023-03-22T08:25:00.030Z,5.60
2023-03-22T08:25:59.996Z,5.50
2023-03-22T08:26:59.955Z,6.80
2023-03-22T08:27:59.914Z,6.30
2023-03-22T08:28:59.882Z,6.60
2023-03-22T08:29:59.847Z,8.80
2023-03-22T08:30:59.797Z,6.10
2023-03-22T08:31:59.795Z,6.30
2023-03-22T08:32:59.718Z,7.40
2023-03-22T08:34:01.099Z,8.30
2023-03-22T08:34:59.671Z,6.00
2023-03-22T08:35:59.659Z,7.10
2023-03-22T08:36:59.564Z,6.40
2023-03-22T08:37:59.533Z,6.60
2023-03-22T08:38:59.545Z,5.90
2023-03-22T08:39:59.575Z,6.30
2023-03-22T08:40:59.552Z,5.40
2023-03-22T08:41:59.430Z,5.70
2023-03-22T08:42:59.335Z,3.80
2023-03-22T08:43:59.324Z,4.90
2023-03-22T08:44:59.261Z,5.80
2023-03-22T08:45:59.287Z,4.40
2023-03-22T08:46:59.206Z,5.10
2023-03-22T08:47:59.183Z,8.50
2023-03-22T08:48:59.110Z,6.50
2023-03-22T08:49:59.065Z,8.80
2023-03-22T08:50:59.027Z,3.80
2023-03-22T08:51:59.000Z,6.60
2023-03-22T08:52:58.948Z,6.10
2023-03-22T08:53:58.950Z,5.10
2023-03-22T08:54:58.901Z,5.60
2023-03-22T08:55:58.837Z,6.90
2023-03-22T08:56:58.800Z,6.30
2023-03-22T08:57:58.765Z,4.70
2023-03-22T08:58:58.732Z,6.60
2023-03-22T08:59:58.684Z,4.90
2023-03-22T09:00:58.725Z,5.60
2023-03-22T09:01:58.764Z,3.40
2023-03-22T09:02:58.577Z,5.10
2023-03-22T09:03:58.568Z,7.00
2023-03-22T09:04:58.515Z,4.70
2023-03-22T09:05:58.469Z,4.90
2023-03-22T09:06:58.418Z,4.60
2023-03-22T09:08:05.869Z,4.70
2023-03-22T09:08:58.341Z,4.70
2023-03-22T09:09:58.304Z,4.80
2023-03-22T09:10:58.274Z,5.00
2023-03-22T09:11:58.253Z,4.80
2023-03-22T09:12:58.192Z,5.00
2023-03-22T09:13:58.175Z,4.70
2023-03-22T09:14:58.633Z,4.60
2023-03-22T09:15:58.133Z,4.20
2023-03-22T09:16:58.061Z,5.70
2023-03-22T09:17:58.015Z,6.20
2023-03-22T09:18:58.091Z,6.60
2023-03-22T09:20:11.609Z,5.60
2023-03-22T09:20:57.900Z,4.20
2023-03-22T09:21:57.867Z,4.10
2023-03-22T09:22:57.831Z,4.30
2023-03-22T09:23:57.831Z,2.90
2023-03-22T09:24:57.748Z,4.10
2023-03-22T09:25:57.816Z,4.80
2023-03-22T09:26:57.674Z,3.50
2023-03-22T09:27:57.649Z,4.40
2023-03-22T09:28:57.634Z,3.90
2023-03-22T09:29:57.650Z,5.90
2023-03-22T09:30:57.569Z,4.70
2023-03-22T09:31:57.520Z,3.70
2023-03-22T09:32:57.502Z,3.80
2023-03-22T09:33:57.445Z,3.70
2023-03-22T09:34:57.392Z,3.80
2023-03-22T09:35:57.406Z,2.80
2023-03-22T09:36:58.600Z,4.10
2023-03-22T09:37:57.286Z,3.10
2023-03-22T09:38:57.262Z,3.60
2023-03-22T09:39:57.230Z,3.80
2023-03-22T09:40:57.181Z,3.90
2023-03-22T09:41:57.145Z,4.70
2023-03-22T09:42:57.114Z,3.90
2023-03-22T09:43:57.089Z,4.60
2023-03-22T09:44:57.070Z,4.20
2023-03-22T09:45:57.078Z,4.40
2023-03-22T09:46:56.973Z,3.20
2023-03-22T09:47:56.976Z,5.20
2023-03-22T09:48:56.904Z,3.80
2023-03-22T09:49:56.868Z,6.40
2023-03-22T09:50:56.844Z,5.00
2023-03-22T09:51:56.838Z,3.50
2023-03-22T09:52:56.762Z,3.70
2023-03-22T09:53:56.741Z,5.00
2023-03-22T09:54:56.691Z,4.50
2023-03-22T09:55:56.669Z,6.50
2023-03-22T09:56:56.616Z,5.90
2023-03-22T09:57:56.585Z,3.70
2023-03-22T09:58:56.543Z,5.00
2023-03-22T09:59:56.510Z,4.90
2023-03-22T10:00:56.588Z,5.60
2023-03-22T10:01:56.648Z,4.30
2023-03-22T10:02:56.459Z,4.40
2023-03-22T10:03:56.377Z,4.60
2023-03-22T10:04:56.328Z,4.50
2023-03-22T10:05:56.295Z,4.50
2023-03-22T10:06:56.269Z,5.50
2023-03-22T10:07:56.351Z,4.00
2023-03-22T10:08:56.195Z,4.20
2023-03-22T10:09:56.213Z,4.00
2023-03-22T10:10:56.112Z,5.00
2023-03-22T10:11:56.118Z,4.10
2023-03-22T10:12:56.066Z,4.90
2023-03-22T10:13:56.085Z,6.60
2023-03-22T10:14:55.977Z,6.10
2023-03-22T10:15:56.114Z,3.60
2023-03-22T10:16:56.618Z,4.30
2023-03-22T10:17:56.112Z,4.70
2023-03-22T10:18:55.945Z,3.50
2023-03-22T10:19:57.086Z,4.40
2023-03-22T10:20:55.844Z,3.40
2023-03-22T10:21:56.099Z,4.60
2023-03-22T10:22:55.854Z,3.50
2023-03-22T10:23:55.761Z,4.10
2023-03-22T10:24:55.909Z,5.30
2023-03-22T10:25:55.878Z,4.60
2023-03-22T10:26:55.679Z,3.70
2023-03-22T10:27:57.276Z,5.60
2023-03-22T10:28:55.605Z,4.40
2023-03-22T10:29:55.638Z,3.80
2023-03-22T10:30:55.906Z,4.00
2023-03-22T10:31:55.745Z,3.00
2023-03-22T10:32:58.156Z,4.60
2023-03-22T10:33:55.476Z,4.10
2023-03-22T10:34:55.406Z,4.90
2023-03-22T10:35:55.385Z,4.30
2023-03-22T10:36:55.372Z,4.00
2023-03-22T10:37:55.316Z,4.20
2023-03-22T10:38:55.498Z,4.40
2023-03-22T10:39:55.488Z,5.30
2023-03-22T10:40:55.554Z,3.90
2023-03-22T10:41:57.844Z,5.20
2023-03-22T10:42:55.117Z,4.00
2023-03-22T10:43:55.015Z,4.70
2023-03-22T10:44:54.996Z,5.40
2023-03-22T10:45:55.053Z,5.00
2023-03-22T10:46:55.129Z,5.10
2023-03-22T10:47:55.057Z,4.10
2023-03-22T10:48:54.882Z,4.70
2023-03-22T10:49:55.045Z,3.80
2023-03-22T10:50:54.835Z,4.20
2023-03-22T10:51:54.920Z,5.40
2023-03-22T10:52:54.843Z,5.90
2023-03-22T10:53:54.711Z,4.50
2023-03-22T10:54:54.753Z,5.40
2023-03-22T10:55:54.597Z,5.70
2023-03-22T10:56:54.577Z,4.80
2023-03-22T10:57:54.549Z,3.70
2023-03-22T10:58:54.485Z,4.30
2023-03-22T10:59:54.629Z,4.70
2023-03-22T11:00:54.531Z,3.70
2023-03-22T11:01:55.569Z,4.40
2023-03-22T11:02:54.381Z,6.50
2023-03-22T11:03:54.500Z,5.70
2023-03-22T11:04:54.246Z,5.60
2023-03-22T11:05:54.292Z,5.10
2023-03-22T11:06:56.282Z,3.70
2023-03-22T11:07:54.313Z,4.70
2023-03-22T11:08:54.254Z,5.60
2023-03-22T11:09:54.247Z,5.40
2023-03-22T11:10:54.396Z,3.50
2023-03-22T11:11:54.757Z,5.40
2023-03-22T11:12:53.979Z,3.20
2023-03-22T11:13:53.922Z,3.80
2023-03-22T11:14:53.981Z,4.10
2023-03-22T11:15:53.878Z,3.60
2023-03-22T11:16:53.963Z,4.30
2023-03-22T11:17:53.942Z,3.90
2023-03-22T11:18:53.849Z,4.40
2023-03-22T11:19:53.911Z,5.00
2023-03-22T11:20:53.767Z,4.80
2023-03-22T11:21:53.829Z,3.90
2023-03-22T11:22:53.744Z,3.60
2023-03-22T11:23:53.553Z,6.40
2023-03-22T11:24:53.547Z,4.30
2023-03-22T11:25:53.486Z,4.00
2023-03-22T11:26:53.561Z,4.80
2023-03-22T11:27:53.502Z,3.80
2023-03-22T11:28:53.584Z,6.00
2023-03-22T11:29:53.362Z,4.00
2023-03-22T11:30:53.305Z,4.00
2023-03-22T11:31:55.622Z,5.10
2023-03-22T11:32:53.273Z,3.30
2023-03-22T11:33:53.622Z,4.30
2023-03-22T11:34:53.184Z,5.00
2023-03-22T11:35:53.193Z,4.70
2023-03-22T11:36:53.063Z,3.70
2023-03-22T11:37:53.001Z,5.40
2023-03-22T11:38:52.942Z,4.70
2023-03-22T11:39:52.975Z,5.50
2023-03-22T11:40:53.096Z,3.40
2023-03-22T11:41:52.902Z,3.80
2023-03-22T11:42:52.948Z,3.30
2023-03-22T11:43:54.045Z,3.00
2023-03-22T11:44:52.822Z,6.10
2023-03-22T11:45:52.858Z,6.00
2023-03-22T11:46:52.704Z,4.20
2023-03-22T11:47:52.870Z,4.80
2023-03-22T11:48:52.719Z,4.20
2023-03-22T11:49:52.666Z,5.90
2023-03-22T11:50:52.609Z,4.80
2023-03-22T11:51:52.662Z,4.80
2023-03-22T11:52:52.543Z,6.20
2023-03-22T11:53:52.480Z,4.00
2023-03-22T11:54:52.437Z,3.90
2023-03-22T11:55:52.427Z,4.60
2023-03-22T11:56:52.408Z,6.30
2023-03-22T11:57:52.281Z,4.90
2023-03-22T11:58:52.251Z,5.00
2023-03-22T11:59:52.273Z,3.70
2023-03-22T12:00:52.176Z,3.40
2023-03-22T12:01:52.246Z,3.80
2023-03-22T12:02:52.119Z,5.50
2023-03-22T12:03:52.196Z,4.80
2023-03-22T12:04:52.059Z,3.00
2023-03-22T12:05:52.098Z,3.40
2023-03-22T12:06:52.045Z,3.80
2023-03-22T12:07:52.012Z,4.00
2023-03-22T12:08:51.997Z,5.90
2023-03-22T12:09:51.907Z,3.00
2023-03-22T12:10:51.854Z,4.30
2023-03-22T12:11:51.866Z,3.30
2023-03-22T12:12:51.994Z,4.20
2023-03-22T12:13:51.721Z,5.10
2023-03-22T12:14:51.756Z,4.80
2023-03-22T12:15:51.693Z,4.00
2023-03-22T12:16:51.657Z,4.50
2023-03-22T12:17:51.597Z,3.70
2023-03-22T12:18:51.571Z,5.40
2023-03-22T12:19:51.514Z,3.10
2023-03-22T12:20:51.461Z,4.60
2023-03-22T12:21:51.396Z,4.20
2023-03-22T12:22:51.471Z,5.70
2023-03-22T12:23:51.375Z,5.10
2023-03-22T12:24:51.362Z,2.90
2023-03-22T12:25:51.354Z,3.30
2023-03-22T12:26:51.248Z,4.10
2023-03-22T12:27:51.260Z,4.90
2023-03-22T12:28:51.185Z,3.60
2023-03-22T12:29:51.123Z,3.70
2023-03-22T12:30:51.133Z,4.00
2023-03-22T12:31:52.773Z,4.20
2023-03-22T12:32:51.117Z,3.80
2023-03-22T12:33:51.045Z,3.90
2023-03-22T12:34:52.583Z,3.60
2023-03-22T12:35:50.972Z,4.30
2023-03-22T12:36:50.925Z,3.70
2023-03-22T12:37:50.861Z,3.40
2023-03-22T12:38:50.777Z,3.20
2023-03-22T12:39:50.754Z,3.10
2023-03-22T12:40:56.697Z,4.70
2023-03-22T12:41:50.571Z,3.50
2023-03-22T12:42:52.747Z,3.40
2023-03-22T12:43:50.500Z,3.40
2023-03-22T12:45:04.261Z,3.60
2023-03-22T12:45:50.416Z,3.90
2023-03-22T12:46:50.478Z,3.90
2023-03-22T12:47:50.475Z,3.40
2023-03-22T12:48:50.386Z,3.30
2023-03-22T12:49:50.268Z,3.90
2023-03-22T12:50:50.258Z,4.60
2023-03-22T12:51:50.200Z,4.00
2023-03-22T12:52:50.159Z,2.50
2023-03-22T12:53:50.743Z,5.70
2023-03-22T12:54:50.078Z,4.40
2023-03-22T12:55:50.041Z,4.40
2023-03-22T12:56:49.995Z,3.80
2023-03-22T12:57:49.992Z,5.20
2023-03-22T12:58:49.940Z,3.00
2023-03-22T12:59:49.881Z,4.30
2023-03-22T13:00:49.872Z,4.20
2023-03-22T13:01:49.810Z,4.60
2023-03-22T13:02:49.854Z,3.80
2023-03-22T13:03:49.828Z,3.30
2023-03-22T13:04:49.754Z,5.00
2023-03-22T13:05:49.670Z,4.00
2023-03-22T13:06:58.787Z,3.40
2023-03-22T13:07:49.603Z,3.80
2023-03-22T13:08:49.542Z,3.30
2023-03-22T13:09:49.527Z,3.00
2023-03-22T13:10:49.465Z,4.90
2023-03-22T13:11:49.819Z,3.30
2023-03-22T13:12:49.385Z,4.30
2023-03-22T13:13:49.337Z,4.60
2023-03-22T13:14:49.333Z,4.30
2023-03-22T13:15:49.281Z,7.10
2023-03-22T13:16:49.270Z,4.30
2023-03-22T13:17:49.274Z,3.30
2023-03-22T13:18:49.164Z,3.40
2023-03-22T13:19:49.113Z,3.60
2023-03-22T13:20:49.073Z,3.60
2023-03-22T13:21:49.055Z,3.60
2023-03-22T13:22:49.009Z,3.30
2023-03-22T13:23:48.954Z,2.80
2023-03-22T13:24:48.933Z,4.80
2023-03-22T13:25:48.873Z,3.60
2023-03-22T13:26:48.859Z,3.70
2023-03-22T13:27:48.798Z,4.00
2023-03-22T13:28:48.757Z,3.20
2023-03-22T13:29:48.736Z,5.30
2023-03-22T13:30:48.685Z,5.00
2023-03-22T13:31:48.661Z,5.40
2023-03-22T13:32:48.682Z,3.40
2023-03-22T13:33:48.581Z,5.50
2023-03-22T13:34:48.578Z,4.10
2023-03-22T13:35:48.518Z,3.20
2023-03-22T13:36:48.477Z,3.50
2023-03-22T13:37:48.433Z,4.40
2023-03-22T13:38:48.388Z,3.50
2023-03-22T13:39:48.357Z,2.50
2023-03-22T13:40:48.313Z,3.90
2023-03-22T13:41:48.262Z,3.50
2023-03-22T13:42:48.232Z,3.10
2023-03-22T13:43:48.213Z,3.10
2023-03-22T13:44:48.146Z,4.10
2023-03-22T13:45:48.153Z,3.80
2023-03-22T13:46:48.096Z,4.90
2023-03-22T13:47:48.125Z,3.30
2023-03-22T13:48:48.640Z,5.40
2023-03-22T13:49:47.999Z,4.70
2023-03-22T13:50:47.912Z,3.90
2023-03-22T13:51:47.882Z,3.00
2023-03-22T13:52:47.855Z,3.60
2023-03-22T13:53:47.796Z,4.40
2023-03-22T13:54:47.807Z,3.00
2023-03-22T13:55:47.729Z,3.70
2023-03-22T13:56:47.814Z,2.80
2023-03-22T13:57:47.647Z,3.10
2023-03-22T13:58:47.605Z,3.90
2023-03-22T13:59:49.133Z,3.90
2023-03-22T14:00:47.535Z,3.70
2023-03-22T14:01:47.714Z,4.30
2023-03-22T14:02:47.550Z,3.30
2023-03-22T14:03:47.626Z,4.00
2023-03-22T14:04:47.383Z,3.80
2023-03-22T14:05:47.369Z,4.90
2023-03-22T14:06:47.308Z,4.30
2023-03-22T14:07:47.311Z,3.80
2023-03-22T14:08:47.233Z,3.80
2023-03-22T14:09:47.190Z,3.80
2023-03-22T14:10:47.162Z,3.60
2023-03-22T14:11:47.114Z,5.10
2023-03-22T14:12:47.076Z,4.50
2023-03-22T14:13:47.043Z,3.80
2023-03-22T14:14:47.087Z,3.10
2023-03-22T14:15:47.102Z,3.80
2023-03-22T14:16:46.947Z,4.30
2023-03-22T14:17:48.726Z,3.70
2023-03-22T14:18:46.865Z,4.10
2023-03-22T14:19:46.813Z,3.60
2023-03-22T14:20:46.778Z,4.50
2023-03-22T14:21:46.742Z,4.00
2023-03-22T14:45:55.010Z,3.80
2023-03-22T14:46:54.990Z,4.40
2023-03-22T14:47:54.937Z,6.10
2023-03-22T14:48:54.914Z,3.30
2023-03-22T14:49:54.862Z,4.00
2023-03-22T14:50:54.822Z,4.10
2023-03-22T14:51:55.637Z,4.80
2023-03-22T14:52:54.761Z,4.70
2023-03-22T14:53:54.722Z,4.60